Time;durP1;ratioP1;P1;durP2;ratioP2;P2;SDS_P1;SDS_P2;PMS_P1;PMS_P2;Temp;Humidity;BMP_temperature;BMP_pressure;BME280_temperature;BME280_humidity;BME280_pressure;Samples;Min_cycle;Max_cycle;Signal;HPM_P1;HPM_P2
2022/03/14 00:01:23;;;;;;;6.70;6.05;;;4.60;99.90;;;;;;5049703;28;20211;-83
2022/03/14 00:03:57;;;;;;;7.30;6.60;;;4.50;99.90;;;;;;5044530;28;20290;-83
2022/03/14 00:06:24;;;;;;;6.68;5.95;;;4.50;99.90;;;;;;5031207;28;20195;-83
2022/03/14 00:08:55;;;;;;;7.38;6.68;;;4.50;99.90;;;;;;5047570;28;20244;-82
2022/03/14 00:11:23;;;;;;;8.00;7.20;;;4.50;99.90;;;;;;5048149;28;20700;-83
2022/03/14 00:13:51;;;;;;;7.20;6.50;;;4.40;99.90;;;;;;5027626;28;20239;-83
2022/03/14 00:16:25;;;;;;;6.88;6.28;;;4.30;99.90;;;;;;5023096;28;20224;-82
2022/03/14 00:18:55;;;;;;;6.90;6.30;;;4.20;99.90;;;;;;5045516;28;20218;-83
2022/03/14 00:21:23;;;;;;;6.97;6.38;;;4.20;99.90;;;;;;5030925;28;20203;-83
2022/03/14 00:23:51;;;;;;;6.65;6.13;;;4.20;99.90;;;;;;5046410;28;20789;-83
2022/03/14 00:26:19;;;;;;;6.93;6.32;;;4.20;99.90;;;;;;5049807;28;20665;-82
2022/03/14 00:28:47;;;;;;;6.85;6.15;;;4.20;99.90;;;;;;5028241;28;20253;-83
2022/03/14 00:31:14;;;;;;;6.43;5.93;;;4.20;99.90;;;;;;5048718;28;20199;-84
2022/03/14 00:33:45;;;;;;;7.15;6.55;;;4.20;99.90;;;;;;5044996;28;20747;-82
2022/03/14 00:36:12;;;;;;;6.82;6.22;;;4.20;99.90;;;;;;5047443;28;20202;-82
2022/03/14 00:38:41;;;;;;;7.68;6.85;;;4.20;99.90;;;;;;5050971;28;20581;-82
2022/03/14 00:41:09;;;;;;;7.78;7.07;;;4.10;99.90;;;;;;5049653;28;20665;-82
2022/03/14 00:43:37;;;;;;;7.82;7.13;;;4.00;99.90;;;;;;5035896;28;20700;-84
2022/03/14 00:46:05;;;;;;;7.25;6.63;;;4.00;99.90;;;;;;5050829;28;20202;-83
2022/03/14 00:48:34;;;;;;;8.00;7.18;;;4.10;99.90;;;;;;5030396;28;20881;-84
2022/03/14 00:51:04;;;;;;;7.78;7.07;;;4.10;99.90;;;;;;5033897;28;20282;-82
2022/03/14 00:53:31;;;;;;;8.07;7.38;;;4.10;99.90;;;;;;5033380;28;20222;-83
2022/03/14 00:56:00;;;;;;;7.40;6.70;;;4.00;99.90;;;;;;5047954;28;20211;-83
2022/03/14 00:58:27;;;;;;;7.40;6.72;;;3.90;99.90;;;;;;5048290;28;20242;-84
2022/03/14 01:00:54;;;;;;;8.10;7.40;;;3.90;99.90;;;;;;5034341;28;20286;-83
2022/03/14 01:03:21;;;;;;;7.10;6.40;;;3.80;99.90;;;;;;5045686;28;20231;-82
2022/03/14 01:05:48;;;;;;;7.32;6.60;;;3.80;99.90;;;;;;5050223;28;20282;-82
2022/03/14 01:08:17;;;;;;;7.85;7.15;;;3.90;99.90;;;;;;5048029;28;20246;-81
2022/03/14 01:10:44;;;;;;;9.40;8.15;;;3.80;99.90;;;;;;5052269;28;20210;-81
2022/03/14 01:13:11;;;;;;;8.90;7.90;;;3.80;99.90;;;;;;5047759;28;20228;-81
2022/03/14 01:15:38;;;;;;;8.10;7.28;;;3.70;99.90;;;;;;5047612;28;20191;-81
2022/03/14 01:18:06;;;;;;;7.85;7.15;;;3.70;99.90;;;;;;5022897;28;20218;-82
2022/03/14 01:20:34;;;;;;;8.52;7.72;;;3.70;99.90;;;;;;5029500;28;20209;-82
2022/03/14 01:23:01;;;;;;;8.15;7.35;;;3.70;99.90;;;;;;5040250;28;20294;-83
2022/03/14 01:25:30;;;;;;;8.25;7.55;;;3.60;99.90;;;;;;5046812;28;20654;-82
2022/03/14 01:27:58;;;;;;;8.05;7.18;;;3.50;99.90;;;;;;5021921;28;20215;-81
2022/03/14 01:30:25;;;;;;;7.82;7.10;;;3.50;99.90;;;;;;5023387;28;20296;-82
2022/03/14 01:32:52;;;;;;;8.07;7.28;;;3.40;99.90;;;;;;5037593;28;20306;-82
2022/03/14 01:35:20;;;;;;;8.40;7.63;;;3.30;99.90;;;;;;5041702;28;20207;-81
2022/03/14 01:37:49;;;;;;;8.43;7.60;;;3.30;99.90;;;;;;5045839;28;20250;-83
2022/03/14 01:40:16;;;;;;;8.65;7.85;;;3.40;99.90;;;;;;5039687;28;20199;-81
2022/03/14 01:42:45;;;;;;;8.43;7.72;;;3.40;99.90;;;;;;5045554;28;20223;-81
2022/03/14 01:45:13;;;;;;;8.75;7.95;;;3.40;99.90;;;;;;5045873;28;20199;-80
2022/03/14 01:47:42;;;;;;;7.85;7.05;;;3.30;99.90;;;;;;5042509;28;20306;-82
2022/03/14 01:50:11;;;;;;;8.90;8.10;;;3.30;99.90;;;;;;5021886;28;20701;-82
2022/03/14 01:52:38;;;;;;;8.68;7.82;;;3.20;99.90;;;;;;5046596;28;20219;-82
2022/03/14 01:55:08;;;;;;;8.57;7.70;;;3.20;99.90;;;;;;5047661;28;20197;-82
2022/03/14 01:57:36;;;;;;;8.52;7.72;;;3.20;99.90;;;;;;5044701;28;20238;-82
2022/03/14 02:00:06;;;;;;;9.82;8.50;;;3.20;99.90;;;;;;5045095;28;20290;-82
2022/03/14 02:02:33;;;;;;;9.32;8.43;;;3.20;99.90;;;;;;5047818;28;20704;-81
2022/03/14 02:05:02;;;;;;;9.57;8.00;;;3.10;99.90;;;;;;5041687;28;20203;-81
2022/03/14 02:07:29;;;;;;;10.13;8.30;;;3.00;99.90;;;;;;5042740;28;20203;-83
2022/03/14 02:09:56;;;;;;;9.65;8.45;;;3.00;99.90;;;;;;5038691;28;20223;-82
2022/03/14 02:12:23;;;;;;;7.70;6.90;;;3.00;99.90;;;;;;5047261;28;20195;-81
2022/03/14 02:14:51;;;;;;;8.57;7.68;;;2.90;99.90;;;;;;5045297;28;20191;-81
2022/03/14 02:17:21;;;;;;;8.70;7.80;;;3.00;99.90;;;;;;5025976;28;20223;-82
2022/03/14 02:19:48;;;;;;;9.50;7.68;;;3.00;99.90;;;;;;5041649;28;20203;-82
2022/03/14 02:22:17;;;;;;;8.25;7.45;;;3.00;99.90;;;;;;5043975;28;20303;-82
2022/03/14 02:24:47;;;;;;;8.40;7.60;;;3.00;99.90;;;;;;5044376;28;20204;-82
2022/03/14 02:27:15;;;;;;;8.40;7.50;;;3.00;99.90;;;;;;5040008;28;20211;-82
2022/03/14 02:29:43;;;;;;;8.63;7.72;;;3.00;99.90;;;;;;5044544;28;20227;-81
2022/03/14 02:32:12;;;;;;;8.32;7.53;;;3.10;99.90;;;;;;5045681;28;20200;-82
2022/03/14 02:34:40;;;;;;;9.15;8.25;;;3.10;99.90;;;;;;5054440;28;20251;-82
2022/03/14 02:37:07;;;;;;;8.18;7.38;;;3.10;99.90;;;;;;5049657;28;20732;-80
2022/03/14 02:39:37;;;;;;;9.13;7.70;;;3.10;99.90;;;;;;5046957;28;20223;-81
2022/03/14 02:42:05;;;;;;;7.80;7.10;;;3.20;99.90;;;;;;5046833;28;20277;-82
2022/03/14 02:44:34;;;;;;;8.07;7.38;;;3.10;99.90;;;;;;5046578;28;20227;-82
2022/03/14 02:47:04;;;;;;;7.82;7.07;;;3.10;99.90;;;;;;5048482;28;20199;-81
2022/03/14 02:49:34;;;;;;;7.80;6.50;;;3.00;99.90;;;;;;5041544;28;20223;-81
2022/03/14 02:52:01;;;;;;;7.32;6.63;;;3.00;99.90;;;;;;5040588;28;20195;-82
2022/03/14 02:54:28;;;;;;;8.77;7.85;;;3.00;99.90;;;;;;5046910;28;20219;-81
2022/03/14 02:56:57;;;;;;;8.77;7.88;;;3.00;99.90;;;;;;5023128;28;20211;-82
2022/03/14 02:59:26;;;;;;;8.15;7.43;;;3.00;99.90;;;;;;5046134;28;20656;-82
2022/03/14 03:01:54;;;;;;;8.18;7.38;;;3.00;99.90;;;;;;5044129;28;20214;-83
2022/03/14 03:04:21;;;;;;;8.32;7.45;;;2.90;99.90;;;;;;5041673;28;20256;-83
2022/03/14 03:06:50;;;;;;;8.13;7.18;;;2.90;99.90;;;;;;5046051;28;20203;-81
2022/03/14 03:09:17;;;;;;;7.60;6.90;;;2.90;99.90;;;;;;5034382;28;20231;-81
2022/03/14 03:11:44;;;;;;;7.85;7.15;;;2.90;99.90;;;;;;5044824;28;20195;-82
2022/03/14 03:14:13;;;;;;;7.57;6.88;;;2.90;99.90;;;;;;5041834;28;20230;-82
2022/03/14 03:16:40;;;;;;;8.05;7.25;;;2.90;99.90;;;;;;5029712;28;20226;-82
2022/03/14 03:19:08;;;;;;;8.30;7.50;;;2.90;99.90;;;;;;5039668;28;20229;-81
2022/03/14 03:21:38;;;;;;;7.70;6.43;;;2.90;99.90;;;;;;5024430;28;20206;-81
2022/03/14 03:24:07;;;;;;;7.47;6.78;;;2.90;99.90;;;;;;5041972;28;20245;-82
2022/03/14 03:26:35;;;;;;;7.43;6.82;;;2.90;99.90;;;;;;5041905;28;20284;-81
2022/03/14 03:29:03;;;;;;;7.75;7.05;;;3.00;99.90;;;;;;5043300;28;20250;-82
2022/03/14 03:31:32;;;;;;;8.82;7.93;;;3.00;99.90;;;;;;5041826;28;20199;-82
2022/03/14 03:33:59;;;;;;;7.55;6.78;;;3.00;99.90;;;;;;5035057;28;20725;-82
2022/03/14 03:36:26;;;;;;;7.88;7.18;;;2.90;99.90;;;;;;5043233;28;20203;-81
2022/03/14 03:38:53;;;;;;;8.32;7.53;;;2.90;99.90;;;;;;5030851;28;20222;-81
2022/03/14 03:41:20;;;;;;;7.20;6.60;;;2.80;99.90;;;;;;5041654;28;20195;-82
2022/03/14 03:43:47;;;;;;;8.50;7.63;;;2.80;99.90;;;;;;5022875;28;20764;-82
2022/03/14 03:46:14;;;;;;;7.13;6.40;;;2.90;99.90;;;;;;5039113;28;20199;-80
2022/03/14 03:48:43;;;;;;;7.13;6.28;;;2.90;99.90;;;;;;5041962;28;20235;-81
2022/03/14 03:51:10;;;;;;;8.82;8.02;;;2.90;99.90;;;;;;5041939;28;20207;-82
2022/03/14 03:53:37;;;;;;;8.60;7.75;;;2.90;99.90;;;;;;5040488;28;20219;-82
2022/03/14 03:56:05;;;;;;;9.15;8.25;;;2.80;99.90;;;;;;5046203;28;20566;-82
2022/03/14 03:58:32;;;;;;;8.23;7.53;;;2.80;99.90;;;;;;5047998;28;20292;-83
2022/03/14 04:00:59;;;;;;;8.18;7.25;;;2.80;99.90;;;;;;5041669;28;20206;-81
2022/03/14 04:03:26;;;;;;;8.05;7.25;;;2.70;99.90;;;;;;5044215;28;20225;-82
2022/03/14 04:05:55;;;;;;;8.38;7.35;;;2.60;99.90;;;;;;5040655;28;20200;-81
2022/03/14 04:08:22;;;;;;;7.85;7.15;;;2.60;99.90;;;;;;5042872;28;20222;-81
2022/03/14 04:10:54;;;;;;;8.70;7.90;;;2.60;99.90;;;;;;5050137;28;20332;-82
2022/03/14 04:13:23;;;;;;;7.95;7.25;;;2.60;99.90;;;;;;5027946;28;20218;-82
2022/03/14 04:15:52;;;;;;;9.38;8.48;;;2.60;99.90;;;;;;5048623;28;20229;-82
2022/03/14 04:18:20;;;;;;;8.05;7.30;;;2.70;99.90;;;;;;5054210;28;20698;-83
2022/03/14 04:20:47;;;;;;;7.18;6.50;;;2.70;99.90;;;;;;5044082;28;20207;-81
2022/03/14 04:23:17;;;;;;;7.57;6.88;;;2.70;99.90;;;;;;5045767;28;20230;-81
2022/03/14 04:25:45;;;;;;;7.38;6.57;;;2.70;99.90;;;;;;5045695;28;20203;-82
2022/03/14 04:28:12;;;;;;;7.82;7.13;;;2.70;99.90;;;;;;5041776;28;20230;-82
2022/03/14 04:30:39;;;;;;;7.85;6.93;;;2.70;99.90;;;;;;5048164;28;20202;-82
2022/03/14 04:33:08;;;;;;;7.97;7.18;;;2.70;99.90;;;;;;5030044;28;20325;-83
2022/03/14 04:35:36;;;;;;;8.63;7.75;;;2.60;99.90;;;;;;5045530;28;20231;-83
2022/03/14 04:38:04;;;;;;;9.07;8.23;;;2.60;99.90;;;;;;5046997;28;20314;-82
2022/03/14 04:40:33;;;;;;;8.80;8.00;;;2.60;99.90;;;;;;5046395;28;20199;-82
2022/03/14 04:43:04;;;;;;;8.75;7.85;;;2.60;99.90;;;;;;5042215;28;20825;-82
2022/03/14 04:45:32;;;;;;;8.05;7.25;;;2.60;99.90;;;;;;5042948;28;20274;-81
2022/03/14 04:47:59;;;;;;;8.52;7.82;;;2.60;99.90;;;;;;5046889;28;20187;-82
2022/03/14 04:50:27;;;;;;;9.00;8.10;;;2.60;99.90;;;;;;5042154;28;20207;-83
2022/03/14 04:52:54;;;;;;;8.15;7.40;;;2.60;99.90;;;;;;5045769;28;20230;-81
2022/03/14 04:55:21;;;;;;;8.50;7.65;;;2.50;99.90;;;;;;5048466;28;20206;-82
2022/03/14 04:57:50;;;;;;;7.22;6.63;;;2.50;99.90;;;;;;5051145;28;20210;-83
2022/03/14 05:00:18;;;;;;;8.82;8.02;;;2.50;99.90;;;;;;5040619;28;20219;-82
2022/03/14 05:02:45;;;;;;;7.70;6.88;;;2.50;99.90;;;;;;5045624;28;20202;-82
2022/03/14 05:05:12;;;;;;;7.35;6.68;;;2.50;99.90;;;;;;5047539;28;20691;-82
2022/03/14 05:07:40;;;;;;;7.70;7.00;;;2.60;99.90;;;;;;5046314;28;20202;-83
2022/03/14 05:10:08;;;;;;;8.80;7.90;;;2.60;99.90;;;;;;5039189;28;20231;-81
2022/03/14 05:12:35;;;;;;;7.95;7.25;;;2.60;99.90;;;;;;5048396;28;20803;-84
2022/03/14 05:15:05;;;;;;;7.53;6.82;;;2.50;99.90;;;;;;5044495;28;20234;-82
2022/03/14 05:17:34;;;;;;;8.07;7.22;;;2.50;99.90;;;;;;5047413;28;20750;-82
2022/03/14 05:20:01;;;;;;;7.95;7.25;;;2.60;99.90;;;;;;5041548;28;20697;-81
2022/03/14 05:22:29;;;;;;;8.13;7.38;;;2.60;99.90;;;;;;5049176;28;20251;-82
2022/03/14 05:24:56;;;;;;;8.23;7.43;;;2.60;99.90;;;;;;5048227;28;20219;-82
2022/03/14 05:27:23;;;;;;;13.63;10.23;;;2.60;99.90;;;;;;5044216;28;20641;-82
2022/03/14 05:29:50;;;;;;;14.20;11.32;;;2.60;99.90;;;;;;5046006;28;20215;-83
2022/03/14 05:32:19;;;;;;;18.05;13.38;;;2.60;99.90;;;;;;5044578;28;20203;-82
2022/03/14 05:34:46;;;;;;;12.85;11.25;;;2.70;99.90;;;;;;5047381;28;20225;-81
2022/03/14 05:37:13;;;;;;;10.98;9.88;;;2.70;99.90;;;;;;5027076;28;20202;-82
2022/03/14 05:39:41;;;;;;;12.30;10.07;;;2.70;99.90;;;;;;5047534;28;20223;-82
2022/03/14 05:42:08;;;;;;;12.25;9.75;;;2.70;99.90;;;;;;5042032;28;20199;-80
2022/03/14 05:44:35;;;;;;;10.27;9.18;;;2.70;99.90;;;;;;5043403;28;20276;-82
2022/03/14 05:47:02;;;;;;;9.02;8.13;;;2.80;99.90;;;;;;5048452;28;20198;-82
2022/03/14 05:49:31;;;;;;;9.60;8.35;;;2.80;99.90;;;;;;5038108;28;20222;-84
2022/03/14 05:51:58;;;;;;;11.18;9.98;;;2.90;99.90;;;;;;5057854;28;20213;-82
2022/03/14 05:54:25;;;;;;;11.43;9.70;;;2.90;99.90;;;;;;5045737;28;20271;-82
2022/03/14 05:56:54;;;;;;;10.75;9.43;;;3.00;99.90;;;;;;5046387;28;20199;-82
2022/03/14 05:59:21;;;;;;;10.32;9.30;;;3.00;99.90;;;;;;5044708;28;20246;-82
2022/03/14 06:01:48;;;;;;;10.93;9.10;;;3.00;99.90;;;;;;5053423;28;20246;-81
2022/03/14 06:04:16;;;;;;;8.75;7.85;;;3.00;99.90;;;;;;5050896;28;20222;-82
2022/03/14 06:06:44;;;;;;;8.32;7.53;;;3.10;99.90;;;;;;5049056;28;20207;-82
2022/03/14 06:09:11;;;;;;;7.97;7.18;;;3.10;99.90;;;;;;5048143;28;20226;-82
2022/03/14 06:11:39;;;;;;;8.05;7.35;;;3.20;99.90;;;;;;5038433;28;20693;-81
2022/03/14 06:14:06;;;;;;;7.70;6.82;;;3.30;99.90;;;;;;5040645;28;20799;-81
2022/03/14 06:16:34;;;;;;;8.65;7.78;;;3.30;99.90;;;;;;5043834;28;20554;-82
2022/03/14 06:19:01;;;;;;;8.32;7.53;;;3.40;99.90;;;;;;5041304;28;20329;-82
2022/03/14 06:21:28;;;;;;;8.32;7.55;;;3.40;99.90;;;;;;5040609;28;20665;-83
2022/03/14 06:23:57;;;;;;;8.57;7.78;;;3.40;99.90;;;;;;5043328;28;20246;-82
2022/03/14 06:26:24;;;;;;;8.23;7.10;;;3.40;99.90;;;;;;5048010;28;20708;-81
2022/03/14 06:28:51;;;;;;;8.52;7.72;;;3.50;99.90;;;;;;5046529;28;20222;-85
2022/03/14 06:31:18;;;;;;;8.23;7.43;;;3.50;99.90;;;;;;5055613;28;20222;-85
2022/03/14 06:33:49;;;;;;;8.15;7.35;;;3.50;99.90;;;;;;5054526;28;20218;-85
2022/03/14 06:36:18;;;;;;;9.35;8.23;;;3.50;99.90;;;;;;5047334;28;20705;-84
2022/03/14 06:38:45;;;;;;;8.85;7.88;;;3.50;99.90;;;;;;5040180;28;20276;-80
2022/03/14 06:41:14;;;;;;;10.32;8.48;;;3.60;99.90;;;;;;5040241;28;20211;-80
2022/03/14 06:43:41;;;;;;;8.88;7.97;;;4.00;99.90;;;;;;5041530;28;21009;-81
2022/03/14 06:46:09;;;;;;;9.50;8.50;;;4.60;99.90;;;;;;5044055;28;20202;-80
2022/03/14 06:48:40;;;;;;;10.63;9.52;;;5.10;99.90;;;;;;5038210;28;20223;-80
2022/03/14 06:51:07;;;;;;;9.88;8.98;;;5.70;99.90;;;;;;5039858;28;20202;-82
2022/03/14 06:53:34;;;;;;;9.80;7.85;;;6.20;99.90;;;;;;5037438;28;22076;-82
2022/03/14 06:56:02;;;;;;;10.50;9.40;;;6.70;99.90;;;;;;5039458;28;20539;-83
2022/03/14 06:58:34;;;;;;;9.95;8.75;;;7.10;99.90;;;;;;5035225;28;20203;-84
2022/03/14 07:01:01;;;;;;;11.75;10.48;;;7.40;99.90;;;;;;5033085;28;20206;-85
2022/03/14 07:03:28;;;;;;;9.80;8.88;;;7.30;99.90;;;;;;5031326;28;20230;-84
2022/03/14 07:05:56;;;;;;;9.10;8.20;;;7.00;99.90;;;;;;5052737;28;20206;-84
2022/03/14 07:08:23;;;;;;;9.02;8.13;;;6.60;99.90;;;;;;5035695;28;20581;-84
2022/03/14 07:10:54;;;;;;;9.82;8.82;;;6.30;99.90;;;;;;5048889;28;20206;-84
2022/03/14 07:13:21;;;;;;;9.18;8.27;;;6.00;99.90;;;;;;5035327;28;20211;-84
2022/03/14 07:15:51;;;;;;;8.25;7.40;;;6.30;99.90;;;;;;5018269;28;20211;-83
2022/03/14 07:18:21;;;;;;;11.45;8.65;;;7.10;99.90;;;;;;5051359;28;20219;-85
2022/03/14 07:20:48;;;;;;;10.32;9.32;;;7.40;99.90;;;;;;5052759;28;20249;-83
2022/03/14 07:23:16;;;;;;;10.95;9.32;;;7.60;99.90;;;;;;5060472;28;20199;-85
2022/03/14 07:25:45;;;;;;;10.68;9.57;;;7.40;99.90;;;;;;5039194;28;20227;-83
2022/03/14 07:28:12;;;;;;;10.63;9.52;;;7.10;99.90;;;;;;5028724;28;20195;-84
2022/03/14 07:30:43;;;;;;;10.40;8.80;;;7.30;99.90;;;;;;5050741;28;20222;-84
2022/03/14 07:36:21;;;;;;;10.05;9.05;;;8.60;99.90;;;;;;5045717;28;20257;-83
2022/03/14 07:38:48;;;;;;;10.18;9.10;;;9.30;99.90;;;;;;5039552;28;20252;-84
2022/03/14 07:41:16;;;;;;;10.57;9.50;;;9.60;99.50;;;;;;5035950;28;20219;-83
2022/03/14 07:43:44;;;;;;;10.02;9.02;;;9.70;98.70;;;;;;5037516;28;20291;-84
2022/03/14 07:46:11;;;;;;;11.18;9.98;;;9.80;99.30;;;;;;5040450;28;20222;-83
2022/03/14 07:51:21;;;;;;;9.85;8.95;;;10.00;98.30;;;;;;5050372;28;20247;-84
2022/03/14 07:53:57;;;;;;;9.85;8.85;;;10.20;97.60;;;;;;5063933;28;20211;-85
2022/03/14 08:00:15;;;;;;;10.20;9.18;;;10.40;97.90;;;;;;5033339;28;20249;-85
2022/03/14 08:02:45;;;;;;;9.30;8.45;;;10.50;97.80;;;;;;5060079;28;20424;-85
2022/03/14 08:05:24;;;;;;;9.63;8.52;;;10.70;96.50;;;;;;5052282;28;20847;-85
2022/03/14 08:13:31;;;;;;;10.73;8.40;;;11.10;96.00;;;;;;5052922;28;20215;-84
2022/03/14 08:16:00;;;;;;;8.90;8.10;;;11.30;95.50;;;;;;5054199;28;20255;-85
2022/03/14 08:18:32;;;;;;;9.63;8.63;;;11.30;95.20;;;;;;5052292;28;20215;-85
2022/03/14 08:21:12;;;;;;;11.25;9.18;;;11.20;95.30;;;;;;5060905;28;20180;-85
2022/03/14 08:23:43;;;;;;;9.52;8.63;;;11.30;95.20;;;;;;5061585;28;20282;-85
2022/03/14 08:26:15;;;;;;;10.50;8.93;;;11.20;95.70;;;;;;5055681;28;20282;-85
2022/03/14 08:28:44;;;;;;;9.02;8.13;;;11.40;95.00;;;;;;5046400;28;20215;-84
2022/03/14 08:40:57;;;;;;;10.65;9.55;;;12.30;92.70;;;;;;5055067;28;20221;-84
2022/03/14 08:43:26;;;;;;;8.70;7.90;;;12.20;92.80;;;;;;5067001;28;20609;-86
2022/03/14 08:46:00;;;;;;;9.07;8.18;;;12.10;92.50;;;;;;5056403;28;20276;-85
2022/03/14 08:49:06;;;;;;;10.00;8.32;;;12.10;92.80;;;;;;5069573;28;20248;-85
2022/03/14 08:51:47;;;;;;;11.13;9.15;;;12.50;92.40;;;;;;5039402;28;20194;-85
2022/03/14 08:54:17;;;;;;;10.63;9.52;;;12.50;92.10;;;;;;5067008;28;20241;-85
2022/03/14 09:00:17;;;;;;;8.95;8.05;;;12.60;91.80;;;;;;5071549;28;20264;-84
2022/03/14 09:06:46;;;;;;;9.68;8.57;;;13.20;90.90;;;;;;5026437;28;20212;-83
2022/03/14 09:09:44;;;;;;;10.02;9.00;;;13.00;91.00;;;;;;5070440;28;20242;-86
2022/03/14 09:12:14;;;;;;;9.25;8.35;;;13.10;91.50;;;;;;5042992;28;20207;-87
2022/03/14 09:14:42;;;;;;;9.52;8.57;;;13.20;91.20;;;;;;5059500;28;20226;-87
2022/03/14 09:17:14;;;;;;;8.98;8.10;;;13.10;90.70;;;;;;5062954;28;20223;-86
2022/03/14 09:20:01;;;;;;;10.65;8.57;;;13.10;90.70;;;;;;5075435;28;20186;-87
2022/03/14 09:22:31;;;;;;;9.85;8.85;;;13.20;89.90;;;;;;5054109;28;20226;-86
2022/03/14 09:24:59;;;;;;;10.43;9.32;;;13.30;90.00;;;;;;5075708;28;20201;-85
2022/03/14 09:27:27;;;;;;;9.85;8.90;;;13.20;89.30;;;;;;5063978;28;20210;-87
2022/03/14 09:29:55;;;;;;;9.95;9.05;;;13.00;90.10;;;;;;5034496;28;20197;-86
2022/03/14 09:32:25;;;;;;;9.43;8.52;;;13.20;90.30;;;;;;5056023;28;20222;-85
2022/03/14 09:34:53;;;;;;;10.27;9.18;;;13.70;90.50;;;;;;5046947;28;20199;-83
2022/03/14 09:37:22;;;;;;;9.93;8.93;;;14.00;90.10;;;;;;5073120;28;20214;-85
2022/03/14 09:39:54;;;;;;;9.98;9.00;;;14.20;88.30;;;;;;5068593;28;20247;-85
2022/03/14 09:42:24;;;;;;;10.30;9.25;;;13.80;87.30;;;;;;5074638;28;20250;-85
2022/03/14 09:44:55;;;;;;;11.45;9.30;;;13.60;88.00;;;;;;5058190;28;20202;-86
2022/03/14 09:47:25;;;;;;;10.07;9.10;;;13.80;87.50;;;;;;5040943;28;20210;-85
2022/03/14 09:50:02;;;;;;;11.77;10.02;;;13.60;86.70;;;;;;5059597;28;20167;-85
2022/03/14 09:55:48;;;;;;;10.50;9.50;;;13.70;87.80;;;;;;5064358;28;20202;-85
2022/03/14 09:58:18;;;;;;;10.55;9.52;;;13.70;87.10;;;;;;5073175;28;20325;-85
2022/03/14 10:00:49;;;;;;;13.23;9.70;;;13.90;89.20;;;;;;5058404;28;20190;-87
2022/03/14 10:03:19;;;;;;;10.85;9.75;;;14.10;87.40;;;;;;5049789;23;20215;-79
2022/03/14 10:05:46;;;;;;;10.18;9.18;;;14.10;86.00;;;;;;5009954;28;20726;-77
2022/03/14 10:08:14;;;;;;;9.73;8.82;;;14.10;86.20;;;;;;5014866;28;20215;-76
2022/03/14 10:10:42;;;;;;;11.13;9.82;;;14.40;87.20;;;;;;5012888;28;20738;-76
2022/03/14 10:13:11;;;;;;;10.25;9.18;;;14.50;85.80;;;;;;5010271;28;20224;-80
2022/03/14 10:15:40;;;;;;;10.73;9.60;;;14.30;85.10;;;;;;5013020;28;20207;-77
2022/03/14 10:18:11;;;;;;;11.63;9.18;;;14.00;85.20;;;;;;5018351;28;20345;-78
2022/03/14 10:20:56;;;;;;;11.18;9.70;;;14.20;87.90;;;;;;5009210;28;20224;-78
2022/03/14 10:23:33;;;;;;;10.95;9.80;;;14.30;84.60;;;;;;5014632;28;20646;-74
2022/03/14 10:26:01;;;;;;;11.25;10.10;;;14.20;84.20;;;;;;5013645;28;20201;-76
2022/03/14 10:28:32;;;;;;;10.73;9.40;;;14.60;85.80;;;;;;5010681;28;20196;-73
2022/03/14 10:31:02;;;;;;;10.68;9.57;;;14.80;83.90;;;;;;5008995;28;20229;-77
2022/03/14 10:33:30;;;;;;;11.00;9.27;;;15.00;83.80;;;;;;5005513;28;20306;-77
2022/03/14 10:36:00;;;;;;;11.73;10.57;;;15.00;84.20;;;;;;5008795;28;20662;-75
2022/03/14 10:38:27;;;;;;;10.52;9.48;;;14.90;83.50;;;;;;5003195;28;20694;-77
2022/03/14 10:40:57;;;;;;;11.25;10.05;;;14.70;84.30;;;;;;5013181;28;20212;-78
2022/03/14 10:43:26;;;;;;;11.30;9.88;;;14.80;83.50;;;;;;5012639;28;21170;-77
2022/03/14 10:45:54;;;;;;;10.57;9.48;;;14.90;85.80;;;;;;5001259;28;20258;-77
2022/03/14 10:48:35;;;;;;;10.70;9.32;;;14.90;83.80;;;;;;5002794;28;20219;-76
2022/03/14 10:51:08;;;;;;;10.73;9.82;;;15.10;81.60;;;;;;4996333;28;20227;-77
2022/03/14 10:53:40;;;;;;;11.88;10.00;;;15.00;81.80;;;;;;5000096;28;20279;-75
2022/03/14 10:56:07;;;;;;;12.20;9.93;;;15.10;82.90;;;;;;4999825;28;20205;-77
2022/03/14 10:58:36;;;;;;;9.88;8.90;;;15.20;81.50;;;;;;4997814;28;20641;-77
2022/03/14 11:01:05;;;;;;;10.80;9.60;;;15.10;82.20;;;;;;4996858;28;20222;-77
2022/03/14 11:03:34;;;;;;;10.73;9.63;;;15.20;81.60;;;;;;5003161;28;20247;-78
2022/03/14 11:06:04;;;;;;;11.07;9.98;;;15.60;81.50;;;;;;5005224;28;20200;-78
2022/03/14 11:08:34;;;;;;;12.20;9.52;;;16.10;80.50;;;;;;5008265;28;20742;-75
2022/03/14 11:11:03;;;;;;;10.70;9.60;;;16.10;79.20;;;;;;4998350;28;20224;-76
2022/03/14 11:13:30;;;;;;;10.38;9.38;;;16.00;80.70;;;;;;5004810;28;20231;-78
2022/03/14 11:15:58;;;;;;;11.00;9.82;;;15.80;80.60;;;;;;5004774;28;20296;-77
2022/03/14 11:18:26;;;;;;;12.25;10.65;;;15.40;79.80;;;;;;5012036;28;20227;-74
2022/03/14 11:20:54;;;;;;;11.23;10.13;;;15.20;80.70;;;;;;5003830;28;20717;-77
2022/03/14 11:23:23;;;;;;;11.98;10.65;;;15.20;79.80;;;;;;5011067;28;20633;-75
2022/03/14 11:25:52;;;;;;;11.27;10.07;;;15.50;79.60;;;;;;5016352;28;20204;-78
2022/03/14 11:28:22;;;;;;;10.32;9.32;;;15.70;79.40;;;;;;5017581;28;20219;-75
2022/03/14 11:30:55;;;;;;;9.95;8.95;;;15.70;77.10;;;;;;5005221;28;20245;-77
2022/03/14 11:33:23;;;;;;;12.93;10.77;;;15.70;78.20;;;;;;5000568;28;20224;-75
2022/03/14 11:35:51;;;;;;;10.63;9.57;;;15.90;79.50;;;;;;4997338;28;20204;-75
2022/03/14 11:38:19;;;;;;;10.23;9.23;;;16.00;77.70;;;;;;4996955;28;20216;-75
2022/03/14 11:40:47;;;;;;;11.00;9.77;;;16.10;77.80;;;;;;5000949;28;20219;-75
2022/03/14 11:43:17;;;;;;;10.52;9.43;;;16.00;77.30;;;;;;5000999;28;20605;-74
2022/03/14 11:45:44;;;;;;;11.50;10.05;;;15.90;77.80;;;;;;5011266;28;20196;-76
2022/03/14 11:48:12;;;;;;;10.88;9.63;;;16.00;77.60;;;;;;5004221;28;20251;-75
2022/03/14 11:50:43;;;;;;;10.25;9.25;;;16.10;76.70;;;;;;4996812;28;20216;-73
2022/03/14 11:53:18;;;;;;;11.18;10.07;;;15.80;77.10;;;;;;4998203;28;20252;-76
2022/03/14 11:55:52;;;;;;;14.52;9.95;;;15.80;78.00;;;;;;5006680;28;20204;-77
2022/03/14 11:58:40;;;;;;;10.02;9.13;;;15.80;75.10;;;;;;5004461;28;20215;-76
2022/03/14 12:01:22;;;;;;;9.82;8.75;;;15.60;74.60;;;;;;4998263;28;20282;-74
2022/03/14 12:03:50;;;;;;;9.73;8.82;;;15.60;76.30;;;;;;4999104;28;20680;-76
2022/03/14 12:06:18;;;;;;;11.85;9.30;;;15.90;77.80;;;;;;5000300;28;20203;-73
2022/03/14 12:08:55;;;;;;;9.50;8.48;;;16.00;74.80;;;;;;5001101;28;20278;-75
2022/03/14 12:11:40;;;;;;;9.82;8.82;;;16.10;75.30;;;;;;5000930;28;20211;-75
2022/03/14 12:14:12;;;;;;;11.43;9.35;;;16.30;73.90;;;;;;5002285;28;20212;-74
2022/03/14 12:16:40;;;;;;;11.82;9.70;;;16.40;75.30;;;;;;5000990;28;20287;-75
2022/03/14 12:19:26;;;;;;;11.23;9.98;;;16.20;75.30;;;;;;5001640;28;22536;-75
2022/03/14 12:21:54;;;;;;;10.70;9.27;;;15.80;76.00;;;;;;5002367;28;20583;-75
2022/03/14 12:24:22;;;;;;;10.40;9.27;;;15.80;75.80;;;;;;5005863;28;20220;-75
2022/03/14 12:26:49;;;;;;;10.48;9.43;;;15.70;76.10;;;;;;5003528;28;20427;-73
2022/03/14 12:29:37;;;;;;;10.23;9.23;;;15.70;76.00;;;;;;5000104;28;20433;-75
2022/03/14 12:32:23;;;;;;;9.95;9.05;;;15.70;75.10;;;;;;4996444;28;20224;-75
2022/03/14 12:34:57;;;;;;;9.93;8.93;;;15.60;76.70;;;;;;5003417;28;20713;-75
2022/03/14 12:37:26;;;;;;;10.00;9.10;;;15.60;76.10;;;;;;5005693;28;20205;-75
2022/03/14 12:39:53;;;;;;;12.73;8.88;;;15.70;76.40;;;;;;5005544;28;20602;-75
2022/03/14 12:42:26;;;;;;;11.40;9.52;;;15.80;77.70;;;;;;5004746;28;20216;-74
2022/03/14 12:45:16;;;;;;;12.52;10.10;;;15.90;76.70;;;;;;5001506;28;20220;-75
2022/03/14 12:47:49;;;;;;;10.13;9.13;;;16.10;77.60;;;;;;5002402;28;20227;-75
2022/03/14 12:50:53;;;;;;;10.43;9.35;;;16.20;77.60;;;;;;5016766;28;20260;-75
2022/03/14 12:53:36;;;;;;;10.68;9.57;;;16.30;76.20;;;;;;5002360;28;20822;-73
2022/03/14 12:56:11;;;;;;;11.52;10.15;;;16.10;76.50;;;;;;4996683;28;20192;-73
2022/03/14 12:58:39;;;;;;;10.73;9.63;;;16.00;77.70;;;;;;5001546;28;20331;-75
2022/03/14 13:01:10;;;;;;;10.93;9.40;;;16.00;77.20;;;;;;4993146;28;20225;-73
2022/03/14 13:03:37;;;;;;;11.27;10.07;;;16.20;77.90;;;;;;5001845;28;20282;-75
2022/03/14 13:06:08;;;;;;;11.65;10.45;;;16.20;77.60;;;;;;5002599;28;20663;-74
2022/03/14 13:08:46;;;;;;;12.23;10.80;;;16.10;77.60;;;;;;5000702;28;20282;-72
2022/03/14 13:13:55;;;;;;;10.40;9.35;;;16.10;77.10;;;;;;5035603;28;20223;-78
2022/03/14 13:16:28;;;;;;;10.13;9.02;;;16.00;77.10;;;;;;5037312;28;20213;-80
2022/03/14 13:18:55;;;;;;;12.63;11.23;;;16.00;77.20;;;;;;5036138;28;20578;-77
2022/03/14 13:21:25;;;;;;;12.10;10.75;;;16.00;77.70;;;;;;5031019;28;20218;-79
2022/03/14 13:23:54;;;;;;;10.40;9.40;;;16.10;78.40;;;;;;5040504;28;20677;-79
2022/03/14 13:26:22;;;;;;;12.57;10.13;;;16.00;78.00;;;;;;5043402;28;20199;-80
2022/03/14 13:28:50;;;;;;;10.48;9.48;;;15.70;79.20;;;;;;5042340;28;20230;-76
2022/03/14 13:31:19;;;;;;;10.93;9.82;;;15.50;79.70;;;;;;5042322;28;20191;-78
2022/03/14 13:33:48;;;;;;;11.85;10.05;;;15.60;79.90;;;;;;5041612;28;20226;-79
2022/03/14 13:36:16;;;;;;;9.65;8.73;;;15.90;81.10;;;;;;5039177;28;20738;-80
2022/03/14 13:38:46;;;;;;;10.18;9.18;;;16.40;81.60;;;;;;5041574;28;20219;-80